createdAt,value
2023-02-19T00:02:53.603Z,214.10
2023-02-19T00:06:02.942Z,214.27
2023-02-19T00:09:11.700Z,218.40
2023-02-19T00:12:17.672Z,208.23
2023-02-19T00:15:22.739Z,206.98
2023-02-19T00:18:27.851Z,205.50
2023-02-19T00:21:33.913Z,206.95
2023-02-19T00:24:39.250Z,210.63
2023-02-19T00:27:44.692Z,216.18
2023-02-19T00:30:50.215Z,207.27
2023-02-19T00:33:59.072Z,211.43
2023-02-19T00:37:04.652Z,216.63
2023-02-19T00:40:10.341Z,211.20
2023-02-19T00:43:16.098Z,211.07
2023-02-19T00:46:28.934Z,214.10
2023-02-19T00:49:34.513Z,206.65
2023-02-19T00:52:40.259Z,214.65
2023-02-19T00:55:46.134Z,215.35
2023-02-19T00:58:52.543Z,211.68
2023-02-19T01:01:58.451Z,214.05
2023-02-19T01:05:04.563Z,208.45
2023-02-19T01:08:10.935Z,205.32
2023-02-19T01:11:17.364Z,212.45
2023-02-19T01:14:22.630Z,213.35
2023-02-19T01:17:28.007Z,202.13
2023-02-19T01:20:33.637Z,213.88
2023-02-19T01:23:39.220Z,217.57
2023-02-19T01:26:45.255Z,217.85
2023-02-19T01:29:51.282Z,207.43
2023-02-19T01:32:56.939Z,225.02
2023-02-19T01:36:07.555Z,204.38
2023-02-19T01:39:13.611Z,205.80
2023-02-19T01:42:18.906Z,209.55
2023-02-19T01:45:26.356Z,212.25
2023-02-19T01:48:38.578Z,207.85
2023-02-19T01:51:53.528Z,210.80
2023-02-19T01:55:01.888Z,210.02
2023-02-19T01:58:09.616Z,197.10
2023-02-19T02:01:16.710Z,198.73
2023-02-19T02:04:21.998Z,190.65
2023-02-19T02:07:46.390Z,198.43
2023-02-19T02:10:53.243Z,183.65
2023-02-19T02:14:00.659Z,174.85
2023-02-19T02:17:35.169Z,190.45
2023-02-19T02:20:58.974Z,183.13
2023-02-19T02:24:55.550Z,171.05
2023-02-19T02:28:23.382Z,165.20
2023-02-19T02:31:40.347Z,168.73
2023-02-19T02:35:19.589Z,164.95
2023-02-19T02:38:30.031Z,182.70
2023-02-19T02:41:35.853Z,242.07
2023-02-19T02:44:42.494Z,434.45
2023-02-19T02:47:57.767Z,439.73
2023-02-19T02:51:19.301Z,450.33
2023-02-19T02:54:53.604Z,508.48
2023-02-19T02:58:00.645Z,443.50
2023-02-19T03:01:34.968Z,446.70
2023-02-19T03:05:13.777Z,403.90
2023-02-19T03:08:34.642Z,397.02
2023-02-19T03:12:02.160Z,385.05
2023-02-19T03:15:29.362Z,321.98
2023-02-19T03:18:57.417Z,285.48
2023-02-19T03:22:22.888Z,341.52
2023-02-19T03:25:51.220Z,349.25
2023-02-19T03:29:23.134Z,304.70
2023-02-19T03:32:37.487Z,309.98
2023-02-19T03:35:50.261Z,321.00
2023-02-19T03:39:02.704Z,281.65
2023-02-19T03:42:14.773Z,276.08
2023-02-19T03:45:30.719Z,176.65
2023-02-19T03:48:54.727Z,150.45
2023-02-19T03:52:03.329Z,121.85
2023-02-19T03:55:12.731Z,122.45
2023-02-19T03:58:41.289Z,137.43
2023-02-19T04:01:56.851Z,95.18
2023-02-19T04:05:25.425Z,70.15
2023-02-19T04:08:35.964Z,76.88
2023-02-19T04:11:44.092Z,68.33
2023-02-19T04:15:02.468Z,65.97
2023-02-19T04:18:11.516Z,66.60
2023-02-19T04:21:19.110Z,60.17
2023-02-19T04:24:43.463Z,53.13
2023-02-19T04:27:49.310Z,61.33
2023-02-19T04:30:54.934Z,54.55
2023-02-19T04:34:00.615Z,60.40
2023-02-19T04:37:06.817Z,75.05
2023-02-19T04:40:12.196Z,113.07
2023-02-19T04:43:17.580Z,85.68
2023-02-19T04:46:22.951Z,95.63
2023-02-19T04:49:28.298Z,97.32
2023-02-19T04:52:33.744Z,99.75
2023-02-19T04:55:39.980Z,99.03
2023-02-19T04:58:45.793Z,99.57
2023-02-19T05:01:51.362Z,110.18
2023-02-19T05:04:56.739Z,101.13
2023-02-19T05:08:02.125Z,91.85
2023-02-19T05:11:11.322Z,93.22
2023-02-19T05:14:17.704Z,90.72
2023-02-19T05:17:23.249Z,94.95
2023-02-19T05:20:28.411Z,93.22
2023-02-19T05:23:34.152Z,99.05
2023-02-19T05:26:39.352Z,91.00
2023-02-19T05:29:44.970Z,93.60
2023-02-19T05:32:50.472Z,88.25
2023-02-19T05:35:56.372Z,84.57
2023-02-19T05:39:01.731Z,87.30
2023-02-19T05:42:07.432Z,87.70
2023-02-19T05:45:13.270Z,202.70
2023-02-19T05:48:18.386Z,106.13
2023-02-19T05:51:25.669Z,90.32
2023-02-19T05:54:31.421Z,100.10
2023-02-19T05:57:48.181Z,96.55
2023-02-19T06:00:54.722Z,115.15
2023-02-19T06:04:00.605Z,115.93
2023-02-19T06:07:05.646Z,115.07
2023-02-19T06:10:12.444Z,88.68
2023-02-19T06:13:17.980Z,99.22
2023-02-19T06:16:23.480Z,78.60
2023-02-19T06:19:30.107Z,124.57
2023-02-19T06:22:35.698Z,80.50
2023-02-19T06:25:41.776Z,80.88
2023-02-19T06:28:49.143Z,128.57
2023-02-19T06:31:54.544Z,86.60
2023-02-19T06:34:59.932Z,84.82
2023-02-19T06:38:04.733Z,94.97
2023-02-19T06:41:11.316Z,96.30
2023-02-19T06:44:17.035Z,134.23
2023-02-19T06:47:25.138Z,121.30
2023-02-19T06:50:30.813Z,264.58
2023-02-19T06:53:35.834Z,234.65
2023-02-19T06:56:44.859Z,248.60
2023-02-19T06:59:51.564Z,169.38
2023-02-19T07:02:57.027Z,250.93
2023-02-19T07:06:02.355Z,183.82
2023-02-19T07:09:09.058Z,195.23
2023-02-19T07:12:14.227Z,173.85
2023-02-19T07:15:19.239Z,162.23
2023-02-19T07:18:24.248Z,204.38
2023-02-19T07:21:30.487Z,164.43
2023-02-19T07:24:35.694Z,175.98
2023-02-19T07:27:41.115Z,178.48
2023-02-19T07:30:46.395Z,145.40
2023-02-19T07:33:52.268Z,164.25
2023-02-19T07:36:57.758Z,117.95
2023-02-19T07:40:03.624Z,163.63
2023-02-19T07:43:08.731Z,136.43
2023-02-19T07:46:14.489Z,146.05
2023-02-19T07:49:19.771Z,125.20
2023-02-19T07:52:25.071Z,156.57
2023-02-19T07:55:32.877Z,152.80
2023-02-19T07:58:38.695Z,110.95
2023-02-19T08:02:02.162Z,126.63
2023-02-19T08:05:07.331Z,136.88
2023-02-19T08:08:14.929Z,140.73
2023-02-19T08:11:38.653Z,128.90
2023-02-19T08:14:43.932Z,117.75
2023-02-19T08:17:48.746Z,131.13
2023-02-19T08:20:56.068Z,144.50
2023-02-19T08:24:01.611Z,128.88
2023-02-19T08:27:07.562Z,141.90
2023-02-19T08:30:12.881Z,128.48
2023-02-19T08:33:21.054Z,125.20
2023-02-19T08:36:26.507Z,154.85
2023-02-19T08:39:32.722Z,129.38
2023-02-19T08:42:37.841Z,121.90
2023-02-19T08:45:47.637Z,125.68
2023-02-19T08:48:52.760Z,138.43
2023-02-19T08:51:58.194Z,131.35
2023-02-19T08:55:05.939Z,147.98
2023-02-19T08:58:11.649Z,125.30
2023-02-19T09:01:19.068Z,128.35
2023-02-19T09:04:24.016Z,116.07
2023-02-19T09:07:29.382Z,132.52
2023-02-19T09:10:34.795Z,129.68
2023-02-19T09:13:40.154Z,118.57
2023-02-19T09:16:45.704Z,118.57
2023-02-19T09:19:52.119Z,111.85
2023-02-19T09:22:59.393Z,121.97
2023-02-19T09:26:08.873Z,118.53
2023-02-19T09:29:15.045Z,132.27
2023-02-19T09:32:20.480Z,116.68
2023-02-19T09:35:25.940Z,129.77
2023-02-19T09:38:31.197Z,128.15
2023-02-19T09:41:38.038Z,124.78
2023-02-19T09:44:48.367Z,127.90
2023-02-19T09:47:58.414Z,133.50
2023-02-19T09:51:04.684Z,135.98
2023-02-19T09:55:31.781Z,135.45
2023-02-19T09:58:50.069Z,147.25
2023-02-19T10:02:03.463Z,131.75
2023-02-19T10:05:14.885Z,134.20
2023-02-19T10:08:22.157Z,136.95
2023-02-19T10:11:28.328Z,145.85
2023-02-19T10:14:42.305Z,152.35
2023-02-19T10:17:47.774Z,149.43
2023-02-19T10:20:53.693Z,150.55
2023-02-19T10:24:04.787Z,157.93
2023-02-19T10:27:15.384Z,161.60
2023-02-19T10:30:25.104Z,160.15
2023-02-19T10:33:30.882Z,158.45
2023-02-19T10:36:40.635Z,167.75
2023-02-19T10:39:49.290Z,159.02
2023-02-19T10:43:00.067Z,157.55
2023-02-19T10:46:08.606Z,164.20
2023-02-19T10:49:28.808Z,150.50
2023-02-19T10:52:36.738Z,166.38
2023-02-19T10:55:41.899Z,158.93
2023-02-19T10:58:47.467Z,152.32
2023-02-19T11:02:19.887Z,152.15
2023-02-19T11:05:25.318Z,152.95
2023-02-19T11:08:34.869Z,145.00
2023-02-19T11:11:40.769Z,162.73
2023-02-19T11:14:46.272Z,147.57
2023-02-19T11:18:08.438Z,158.25
2023-02-19T11:21:33.204Z,150.73
2023-02-19T11:24:40.702Z,147.75
2023-02-19T11:28:21.393Z,148.52
2023-02-19T11:31:35.791Z,151.05
2023-02-19T11:34:41.431Z,155.18
2023-02-19T11:38:01.284Z,143.35
2023-02-19T11:41:22.172Z,155.15
2023-02-19T11:44:46.799Z,147.27
2023-02-19T11:48:29.579Z,142.50
2023-02-19T11:52:27.796Z,159.73
2023-02-19T11:55:48.317Z,141.05
2023-02-19T11:59:22.946Z,147.75
2023-02-19T12:03:05.860Z,147.50
2023-02-19T12:06:27.127Z,146.00
2023-02-19T12:09:51.762Z,139.48
2023-02-19T12:13:09.305Z,147.23
2023-02-19T12:16:39.163Z,143.10
2023-02-19T12:20:23.598Z,147.98
2023-02-19T12:23:43.648Z,149.00
2023-02-19T12:26:54.670Z,147.02
2023-02-19T12:30:29.129Z,137.27
2023-02-19T12:33:46.635Z,144.35
2023-02-19T12:37:04.135Z,158.50
2023-02-19T12:40:15.876Z,148.18
2023-02-19T12:43:23.544Z,141.05
2023-02-19T12:46:54.222Z,139.40
2023-02-19T12:50:23.749Z,144.32
2023-02-19T12:53:55.189Z,146.48
2023-02-19T12:57:13.919Z,143.18
2023-02-19T13:00:31.675Z,142.48
2023-02-19T13:03:49.519Z,136.73
2023-02-19T13:07:14.349Z,151.50
2023-02-19T13:10:42.112Z,147.50
2023-02-19T13:14:01.403Z,135.13
2023-02-19T13:17:41.763Z,137.60
2023-02-19T13:20:49.113Z,135.07
2023-02-19T13:24:02.021Z,134.65
2023-02-19T13:27:13.921Z,139.40
2023-02-19T13:30:29.810Z,130.82
2023-02-19T13:34:13.441Z,138.35
2023-02-19T13:37:20.054Z,133.90
2023-02-19T13:40:35.535Z,125.15
2023-02-19T13:43:43.033Z,137.48
2023-02-19T13:46:50.401Z,122.55
2023-02-19T13:50:07.128Z,128.18
2023-02-19T13:53:44.820Z,123.93
2023-02-19T13:56:50.765Z,118.22
2023-02-19T13:59:58.033Z,115.72
2023-02-19T14:03:37.199Z,119.40
2023-02-19T14:07:04.349Z,110.93
2023-02-19T14:10:14.384Z,113.45
2023-02-19T14:13:51.333Z,122.40
2023-02-19T14:17:28.698Z,113.88
2023-02-19T14:20:45.741Z,114.00
2023-02-19T14:23:57.400Z,114.68
2023-02-19T14:27:03.724Z,114.45
2023-02-19T14:30:13.333Z,114.35
2023-02-19T14:33:25.308Z,109.53
2023-02-19T14:37:10.364Z,111.50
2023-02-19T14:40:27.283Z,111.53
2023-02-19T14:43:34.894Z,109.90
2023-02-19T14:46:50.406Z,126.78
2023-02-19T14:50:00.539Z,125.55
2023-02-19T14:53:08.209Z,123.68
2023-02-19T14:56:26.378Z,117.00
2023-02-19T14:59:31.946Z,120.40
2023-02-19T15:02:43.536Z,106.05
2023-02-19T15:05:59.763Z,112.20
2023-02-19T15:09:07.621Z,105.43
2023-02-19T15:12:25.662Z,107.57
2023-02-19T15:15:35.859Z,102.65
2023-02-19T15:18:46.581Z,114.18
2023-02-19T15:21:52.357Z,103.50
2023-02-19T15:25:02.561Z,103.55
2023-02-19T15:28:25.113Z,102.60
2023-02-19T15:34:36.134Z,90.97
2023-02-19T15:37:42.184Z,102.30
2023-02-19T15:40:49.905Z,104.40
2023-02-19T15:44:28.388Z,99.15
2023-02-19T15:47:39.137Z,102.45
2023-02-19T15:50:49.825Z,103.18
2023-02-19T15:54:04.514Z,95.15
2023-02-19T15:57:19.305Z,104.63
2023-02-19T16:00:34.865Z,101.55
2023-02-19T16:03:40.763Z,97.22
2023-02-19T16:06:58.152Z,105.13
2023-02-19T16:10:21.031Z,109.88
2023-02-19T16:13:32.877Z,111.22
2023-02-19T16:16:42.461Z,115.03
2023-02-19T16:20:00.387Z,118.95
2023-02-19T16:23:15.185Z,118.30
2023-02-19T16:26:21.608Z,113.28
2023-02-19T16:29:32.405Z,112.65
2023-02-19T16:32:37.716Z,111.25
2023-02-19T16:35:45.321Z,121.90
2023-02-19T16:39:08.641Z,126.07
2023-02-19T16:42:14.805Z,131.35
2023-02-19T16:45:19.981Z,123.38
2023-02-19T16:48:26.109Z,148.40
2023-02-19T16:51:31.597Z,141.15
2023-02-19T16:54:37.300Z,160.63
2023-02-19T16:57:42.828Z,170.52
2023-02-19T17:00:48.570Z,167.35
2023-02-19T17:04:00.301Z,159.20
2023-02-19T17:07:06.015Z,165.80
2023-02-19T17:10:16.972Z,157.20
2023-02-19T17:13:22.741Z,154.47
2023-02-19T17:16:40.646Z,152.93
2023-02-19T17:19:46.254Z,150.38
2023-02-19T17:22:51.673Z,159.05
2023-02-19T17:25:57.713Z,154.05
2023-02-19T17:29:06.781Z,159.13
2023-02-19T17:32:12.776Z,165.90
2023-02-19T17:35:18.387Z,170.10
2023-02-19T17:38:23.897Z,180.10
2023-02-19T17:41:29.798Z,164.18
2023-02-19T17:44:35.355Z,148.65
2023-02-19T17:47:41.134Z,158.40
2023-02-19T17:50:49.522Z,147.23
2023-02-19T17:53:54.797Z,149.25
2023-02-19T17:57:00.245Z,157.20
2023-02-19T18:00:06.773Z,160.05
2023-02-19T18:03:17.874Z,159.32
2023-02-19T18:06:23.264Z,144.02
2023-02-19T18:09:29.333Z,155.45
2023-02-19T18:12:34.785Z,167.77
2023-02-19T18:15:40.264Z,174.45
2023-02-19T18:18:45.857Z,149.73
2023-02-19T18:21:52.070Z,172.55
2023-02-19T18:24:57.313Z,177.27
2023-02-19T18:28:03.379Z,175.75
2023-02-19T18:31:09.308Z,173.82
2023-02-19T18:34:19.687Z,177.40
2023-02-19T18:37:27.151Z,186.75
2023-02-19T18:40:32.772Z,187.88
2023-02-19T18:43:38.401Z,177.55
2023-02-19T18:46:44.130Z,188.15
2023-02-19T18:49:50.710Z,191.82
2023-02-19T18:52:56.367Z,189.57
2023-02-19T18:56:02.267Z,186.48
2023-02-19T18:59:07.701Z,196.27
2023-02-19T19:02:13.981Z,190.70
2023-02-19T19:05:23.317Z,183.35
2023-02-19T19:08:30.664Z,184.48
2023-02-19T19:11:36.888Z,189.65
2023-02-19T19:14:42.620Z,191.73
2023-02-19T19:17:48.471Z,189.88
2023-02-19T19:20:56.941Z,191.90
2023-02-19T19:24:02.742Z,190.32
2023-02-19T19:27:08.282Z,178.52
2023-02-19T19:30:14.537Z,183.35
2023-02-19T19:33:20.387Z,188.60
2023-02-19T19:36:25.914Z,182.40
2023-02-19T19:39:31.236Z,165.85
2023-02-19T19:42:36.940Z,171.40
2023-02-19T19:45:42.368Z,182.65
2023-02-19T19:48:50.572Z,173.50
2023-02-19T19:52:01.326Z,161.02
2023-02-19T19:55:07.297Z,172.90
2023-02-19T19:58:12.803Z,172.88
2023-02-19T20:01:21.428Z,161.25
2023-02-19T20:04:27.654Z,151.88
2023-02-19T20:07:34.228Z,159.93
2023-02-19T20:10:40.234Z,160.00
2023-02-19T20:13:46.126Z,171.45
2023-02-19T20:16:52.848Z,175.15
2023-02-19T20:19:58.664Z,157.80
2023-02-19T20:23:04.249Z,168.40
2023-02-19T20:26:09.776Z,168.25
2023-02-19T20:29:15.349Z,181.63
2023-02-19T20:32:21.243Z,175.93
2023-02-19T20:35:29.075Z,171.80
2023-02-19T20:38:34.519Z,184.27
2023-02-19T20:41:39.616Z,184.93
2023-02-19T20:44:45.318Z,186.27
2023-02-19T20:47:50.975Z,178.05
2023-02-19T20:51:02.204Z,164.50
2023-02-19T20:54:07.641Z,174.85
2023-02-19T20:57:14.798Z,167.93
2023-02-19T21:00:20.913Z,174.25
2023-02-19T21:03:26.837Z,172.63
2023-02-19T21:06:32.437Z,170.18
2023-02-19T21:09:37.822Z,163.85
2023-02-19T21:12:43.289Z,176.00
2023-02-19T21:15:49.064Z,185.25
2023-02-19T21:18:54.683Z,175.57
2023-02-19T21:22:00.077Z,184.65
2023-02-19T21:25:06.056Z,169.85
2023-02-19T21:28:11.424Z,176.95
2023-02-19T21:31:17.067Z,175.82
2023-02-19T21:34:25.708Z,189.60
2023-02-19T21:37:31.443Z,181.82
2023-02-19T21:40:38.238Z,172.80
2023-02-19T21:43:43.306Z,181.85
2023-02-19T21:46:49.082Z,184.50
2023-02-19T21:49:54.474Z,194.82
2023-02-19T21:53:00.873Z,190.90
2023-02-19T21:56:06.418Z,172.20
2023-02-19T21:59:12.658Z,182.70
2023-02-19T22:02:20.374Z,189.05
2023-02-19T22:05:26.288Z,199.05
2023-02-19T22:08:31.529Z,193.30
2023-02-19T22:11:37.030Z,193.32
2023-02-19T22:14:42.458Z,189.43
2023-02-19T22:17:48.011Z,203.52
2023-02-19T22:20:53.397Z,192.18
2023-02-19T22:23:59.656Z,197.45
2023-02-19T22:27:05.071Z,194.88
2023-02-19T22:30:11.567Z,187.50
2023-02-19T22:33:17.075Z,203.52
2023-02-19T22:36:27.943Z,199.45
2023-02-19T22:39:33.760Z,210.90
2023-02-19T22:42:39.571Z,209.55
2023-02-19T22:45:45.585Z,209.85
2023-02-19T22:48:51.255Z,199.88
2023-02-19T22:52:01.806Z,210.35
2023-02-19T22:55:07.483Z,198.82
2023-02-19T22:58:13.089Z,209.35
2023-02-19T23:01:19.123Z,203.82
2023-02-19T23:04:26.541Z,189.05
2023-02-19T23:07:31.888Z,207.55
2023-02-19T23:10:37.320Z,201.30
2023-02-19T23:13:43.070Z,206.70
2023-02-19T23:16:48.713Z,193.77
2023-02-19T23:19:53.896Z,202.13
2023-02-19T23:22:59.802Z,205.48
2023-02-19T23:26:05.579Z,184.77
2023-02-19T23:29:10.975Z,182.32
2023-02-19T23:32:21.074Z,196.18
2023-02-19T23:35:26.939Z,176.52
2023-02-19T23:38:32.386Z,181.63
2023-02-19T23:41:38.335Z,168.27
2023-02-19T23:44:47.478Z,185.07
2023-02-19T23:47:53.194Z,175.55
2023-02-19T23:50:58.752Z,169.88
2023-02-19T23:54:05.058Z,176.88
2023-02-19T23:57:10.878Z,160.30
